sensor_id;sensor_type;location;lat;lon;timestamp;P1;durP1;ratioP1;P2;durP2;ratioP2
6442;SDS011;3254;47.372;8.512;2023-09-30T00:00:56;26.63;;;11.10;;
6442;SDS011;3254;47.372;8.512;2023-09-30T00:03:22;22.37;;;9.93;;
6442;SDS011;3254;47.372;8.512;2023-09-30T00:05:47;23.70;;;9.70;;
6442;SDS011;3254;47.372;8.512;2023-09-30T00:08:13;22.63;;;9.70;;
6442;SDS011;3254;47.372;8.512;2023-09-30T00:10:39;23.83;;;9.40;;
6442;SDS011;3254;47.372;8.512;2023-09-30T00:13:04;24.87;;;10.90;;
6442;SDS011;3254;47.372;8.512;2023-09-30T00:15:32;25.23;;;10.10;;
6442;SDS011;3254;47.372;8.512;2023-09-30T00:17:57;29.67;;;10.70;;
6442;SDS011;3254;47.372;8.512;2023-09-30T00:20:23;20.77;;;9.50;;
6442;SDS011;3254;47.372;8.512;2023-09-30T00:22:49;22.60;;;9.27;;
6442;SDS011;3254;47.372;8.512;2023-09-30T00:25:14;19.47;;;8.90;;
6442;SDS011;3254;47.372;8.512;2023-09-30T00:27:40;19.80;;;8.93;;
6442;SDS011;3254;47.372;8.512;2023-09-30T00:30:06;25.80;;;9.50;;
6442;SDS011;3254;47.372;8.512;2023-09-30T00:32:32;29.03;;;10.70;;
6442;SDS011;3254;47.372;8.512;2023-09-30T00:34:58;22.57;;;9.30;;
6442;SDS011;3254;47.372;8.512;2023-09-30T00:37:25;25.33;;;9.90;;
6442;SDS011;3254;47.372;8.512;2023-09-30T00:39:52;23.90;;;10.03;;
6442;SDS011;3254;47.372;8.512;2023-09-30T00:42:17;23.23;;;8.83;;
6442;SDS011;3254;47.372;8.512;2023-09-30T00:44:43;17.73;;;8.43;;
6442;SDS011;3254;47.372;8.512;2023-09-30T00:47:09;23.13;;;10.17;;
6442;SDS011;3254;47.372;8.512;2023-09-30T00:49:35;25.07;;;10.20;;
6442;SDS011;3254;47.372;8.512;2023-09-30T00:52:01;26.93;;;9.57;;
6442;SDS011;3254;47.372;8.512;2023-09-30T00:54:28;28.53;;;10.53;;
6442;SDS011;3254;47.372;8.512;2023-09-30T00:56:55;26.40;;;10.10;;
6442;SDS011;3254;47.372;8.512;2023-09-30T00:59:22;23.90;;;10.13;;
6442;SDS011;3254;47.372;8.512;2023-09-30T01:01:50;23.53;;;9.50;;
6442;SDS011;3254;47.372;8.512;2023-09-30T01:04:16;27.80;;;10.90;;
6442;SDS011;3254;47.372;8.512;2023-09-30T01:06:42;24.00;;;9.90;;
6442;SDS011;3254;47.372;8.512;2023-09-30T01:09:08;21.60;;;10.23;;
6442;SDS011;3254;47.372;8.512;2023-09-30T01:11:34;19.60;;;9.57;;
6442;SDS011;3254;47.372;8.512;2023-09-30T01:13:59;21.90;;;10.00;;
6442;SDS011;3254;47.372;8.512;2023-09-30T01:16:25;26.43;;;10.50;;
6442;SDS011;3254;47.372;8.512;2023-09-30T01:18:50;24.27;;;9.53;;
6442;SDS011;3254;47.372;8.512;2023-09-30T01:21:16;21.23;;;9.83;;
6442;SDS011;3254;47.372;8.512;2023-09-30T01:23:43;21.73;;;9.20;;
6442;SDS011;3254;47.372;8.512;2023-09-30T01:26:11;22.73;;;9.63;;
6442;SDS011;3254;47.372;8.512;2023-09-30T01:28:38;24.40;;;10.70;;
6442;SDS011;3254;47.372;8.512;2023-09-30T01:31:04;23.63;;;10.50;;
6442;SDS011;3254;47.372;8.512;2023-09-30T01:33:30;32.20;;;9.83;;
6442;SDS011;3254;47.372;8.512;2023-09-30T01:35:57;21.73;;;9.63;;
6442;SDS011;3254;47.372;8.512;2023-09-30T01:38:23;23.20;;;9.43;;
6442;SDS011;3254;47.372;8.512;2023-09-30T01:40:48;22.37;;;9.87;;
6442;SDS011;3254;47.372;8.512;2023-09-30T01:43:14;21.43;;;9.33;;
6442;SDS011;3254;47.372;8.512;2023-09-30T01:45:40;28.17;;;9.80;;
6442;SDS011;3254;47.372;8.512;2023-09-30T01:48:07;28.13;;;10.13;;
6442;SDS011;3254;47.372;8.512;2023-09-30T01:50:35;22.70;;;9.37;;
6442;SDS011;3254;47.372;8.512;2023-09-30T01:53:03;20.93;;;9.30;;
6442;SDS011;3254;47.372;8.512;2023-09-30T01:55:28;23.60;;;9.03;;
6442;SDS011;3254;47.372;8.512;2023-09-30T01:57:54;24.50;;;9.40;;
6442;SDS011;3254;47.372;8.512;2023-09-30T02:00:19;28.23;;;9.30;;
6442;SDS011;3254;47.372;8.512;2023-09-30T02:02:45;19.47;;;8.90;;
6442;SDS011;3254;47.372;8.512;2023-09-30T02:05:11;17.27;;;7.93;;
6442;SDS011;3254;47.372;8.512;2023-09-30T02:07:36;23.17;;;8.63;;
6442;SDS011;3254;47.372;8.512;2023-09-30T02:10:02;25.40;;;9.20;;
6442;SDS011;3254;47.372;8.512;2023-09-30T02:12:28;27.10;;;9.77;;
6442;SDS011;3254;47.372;8.512;2023-09-30T02:14:54;20.83;;;8.30;;
6442;SDS011;3254;47.372;8.512;2023-09-30T02:17:19;23.60;;;9.13;;
6442;SDS011;3254;47.372;8.512;2023-09-30T02:19:45;26.83;;;9.93;;
6442;SDS011;3254;47.372;8.512;2023-09-30T02:22:12;21.40;;;8.33;;
6442;SDS011;3254;47.372;8.512;2023-09-30T02:24:37;19.83;;;8.70;;
6442;SDS011;3254;47.372;8.512;2023-09-30T02:27:05;20.53;;;9.30;;
6442;SDS011;3254;47.372;8.512;2023-09-30T02:29:31;24.57;;;9.73;;
6442;SDS011;3254;47.372;8.512;2023-09-30T02:31:56;18.10;;;8.40;;
6442;SDS011;3254;47.372;8.512;2023-09-30T02:34:22;19.67;;;8.47;;
6442;SDS011;3254;47.372;8.512;2023-09-30T02:36:49;22.67;;;8.43;;
6442;SDS011;3254;47.372;8.512;2023-09-30T02:39:14;20.97;;;7.73;;
6442;SDS011;3254;47.372;8.512;2023-09-30T02:41:41;28.80;;;8.90;;
6442;SDS011;3254;47.372;8.512;2023-09-30T02:44:07;22.90;;;8.97;;
6442;SDS011;3254;47.372;8.512;2023-09-30T02:46:32;22.60;;;8.30;;
6442;SDS011;3254;47.372;8.512;2023-09-30T02:48:58;22.73;;;8.63;;
6442;SDS011;3254;47.372;8.512;2023-09-30T02:51:25;18.37;;;7.90;;
6442;SDS011;3254;47.372;8.512;2023-09-30T02:53:51;17.53;;;7.43;;
6442;SDS011;3254;47.372;8.512;2023-09-30T02:56:16;20.63;;;8.87;;
6442;SDS011;3254;47.372;8.512;2023-09-30T02:58:44;20.43;;;8.10;;
6442;SDS011;3254;47.372;8.512;2023-09-30T03:01:13;23.33;;;8.20;;
6442;SDS011;3254;47.372;8.512;2023-09-30T03:03:41;17.20;;;7.37;;
6442;SDS011;3254;47.372;8.512;2023-09-30T03:06:09;18.80;;;7.30;;
6442;SDS011;3254;47.372;8.512;2023-09-30T03:08:35;26.17;;;8.60;;
6442;SDS011;3254;47.372;8.512;2023-09-30T03:11:01;24.40;;;7.57;;
6442;SDS011;3254;47.372;8.512;2023-09-30T03:13:27;16.43;;;7.23;;
6442;SDS011;3254;47.372;8.512;2023-09-30T03:15:52;22.20;;;8.13;;
6442;SDS011;3254;47.372;8.512;2023-09-30T03:18:18;19.97;;;8.03;;
6442;SDS011;3254;47.372;8.512;2023-09-30T03:20:51;22.90;;;8.60;;
6442;SDS011;3254;47.372;8.512;2023-09-30T03:23:25;24.13;;;8.33;;
6442;SDS011;3254;47.372;8.512;2023-09-30T03:25:56;18.03;;;7.20;;
6442;SDS011;3254;47.372;8.512;2023-09-30T03:28:22;19.10;;;7.97;;
6442;SDS011;3254;47.372;8.512;2023-09-30T03:30:48;15.43;;;6.83;;
6442;SDS011;3254;47.372;8.512;2023-09-30T03:33:13;25.03;;;7.73;;
6442;SDS011;3254;47.372;8.512;2023-09-30T03:35:39;24.23;;;7.10;;
6442;SDS011;3254;47.372;8.512;2023-09-30T03:38:04;13.73;;;5.87;;
6442;SDS011;3254;47.372;8.512;2023-09-30T03:40:31;15.60;;;6.60;;
6442;SDS011;3254;47.372;8.512;2023-09-30T03:42:59;11.77;;;6.00;;
6442;SDS011;3254;47.372;8.512;2023-09-30T03:45:24;18.13;;;6.40;;
6442;SDS011;3254;47.372;8.512;2023-09-30T03:47:50;14.90;;;7.00;;
6442;SDS011;3254;47.372;8.512;2023-09-30T03:50:16;20.27;;;6.63;;
6442;SDS011;3254;47.372;8.512;2023-09-30T03:52:42;16.30;;;6.57;;
6442;SDS011;3254;47.372;8.512;2023-09-30T03:55:12;12.87;;;5.90;;
6442;SDS011;3254;47.372;8.512;2023-09-30T03:57:42;14.07;;;6.07;;
6442;SDS011;3254;47.372;8.512;2023-09-30T04:00:12;17.27;;;6.47;;
6442;SDS011;3254;47.372;8.512;2023-09-30T04:02:41;14.57;;;6.43;;
6442;SDS011;3254;47.372;8.512;2023-09-30T04:05:07;13.00;;;5.63;;
6442;SDS011;3254;47.372;8.512;2023-09-30T04:07:36;17.20;;;5.43;;
6442;SDS011;3254;47.372;8.512;2023-09-30T04:10:02;15.10;;;5.40;;
6442;SDS011;3254;47.372;8.512;2023-09-30T04:12:29;10.37;;;5.63;;
6442;SDS011;3254;47.372;8.512;2023-09-30T04:14:54;16.90;;;5.73;;
6442;SDS011;3254;47.372;8.512;2023-09-30T04:17:20;13.60;;;5.87;;
6442;SDS011;3254;47.372;8.512;2023-09-30T04:19:48;15.83;;;5.90;;
6442;SDS011;3254;47.372;8.512;2023-09-30T04:22:16;16.53;;;5.90;;
6442;SDS011;3254;47.372;8.512;2023-09-30T04:24:42;14.60;;;5.73;;
6442;SDS011;3254;47.372;8.512;2023-09-30T04:27:07;11.00;;;5.27;;
6442;SDS011;3254;47.372;8.512;2023-09-30T04:29:33;14.80;;;5.93;;
6442;SDS011;3254;47.372;8.512;2023-09-30T04:31:59;14.43;;;4.97;;
6442;SDS011;3254;47.372;8.512;2023-09-30T04:34:25;14.73;;;5.37;;
6442;SDS011;3254;47.372;8.512;2023-09-30T04:36:52;13.10;;;5.13;;
6442;SDS011;3254;47.372;8.512;2023-09-30T04:39:18;15.07;;;6.67;;
6442;SDS011;3254;47.372;8.512;2023-09-30T04:41:43;14.80;;;5.37;;
6442;SDS011;3254;47.372;8.512;2023-09-30T04:44:09;15.13;;;5.63;;
6442;SDS011;3254;47.372;8.512;2023-09-30T04:46:35;17.33;;;5.27;;
6442;SDS011;3254;47.372;8.512;2023-09-30T04:49:05;15.13;;;5.30;;
6442;SDS011;3254;47.372;8.512;2023-09-30T04:51:34;11.10;;;5.33;;
6442;SDS011;3254;47.372;8.512;2023-09-30T04:54:00;13.67;;;5.70;;
6442;SDS011;3254;47.372;8.512;2023-09-30T04:56:27;15.10;;;5.67;;
6442;SDS011;3254;47.372;8.512;2023-09-30T04:58:52;9.17;;;4.60;;
6442;SDS011;3254;47.372;8.512;2023-09-30T05:01:18;14.63;;;5.50;;
6442;SDS011;3254;47.372;8.512;2023-09-30T05:03:44;19.90;;;5.20;;
6442;SDS011;3254;47.372;8.512;2023-09-30T05:06:13;8.87;;;4.80;;
6442;SDS011;3254;47.372;8.512;2023-09-30T05:08:39;11.07;;;5.50;;
6442;SDS011;3254;47.372;8.512;2023-09-30T05:11:04;13.57;;;5.00;;
6442;SDS011;3254;47.372;8.512;2023-09-30T05:13:30;13.20;;;5.77;;
6442;SDS011;3254;47.372;8.512;2023-09-30T05:15:55;9.53;;;4.50;;
6442;SDS011;3254;47.372;8.512;2023-09-30T05:18:21;9.60;;;4.63;;
6442;SDS011;3254;47.372;8.512;2023-09-30T05:20:46;12.93;;;5.30;;
6442;SDS011;3254;47.372;8.512;2023-09-30T05:23:12;12.53;;;6.10;;
6442;SDS011;3254;47.372;8.512;2023-09-30T05:25:38;9.90;;;5.30;;
6442;SDS011;3254;47.372;8.512;2023-09-30T05:28:05;14.57;;;5.23;;
6442;SDS011;3254;47.372;8.512;2023-09-30T05:30:32;13.53;;;5.50;;
6442;SDS011;3254;47.372;8.512;2023-09-30T05:32:58;13.33;;;5.10;;
6442;SDS011;3254;47.372;8.512;2023-09-30T05:35:25;17.93;;;5.23;;
6442;SDS011;3254;47.372;8.512;2023-09-30T05:37:51;13.80;;;5.47;;
6442;SDS011;3254;47.372;8.512;2023-09-30T05:40:20;13.80;;;5.83;;
6442;SDS011;3254;47.372;8.512;2023-09-30T05:42:55;14.50;;;6.67;;
6442;SDS011;3254;47.372;8.512;2023-09-30T05:45:24;12.33;;;5.37;;
6442;SDS011;3254;47.372;8.512;2023-09-30T05:47:51;23.10;;;7.00;;
6442;SDS011;3254;47.372;8.512;2023-09-30T05:50:17;13.03;;;5.23;;
6442;SDS011;3254;47.372;8.512;2023-09-30T05:52:49;17.03;;;6.50;;
6442;SDS011;3254;47.372;8.512;2023-09-30T05:55:15;17.23;;;6.30;;
6442;SDS011;3254;47.372;8.512;2023-09-30T05:57:44;14.07;;;6.17;;
6442;SDS011;3254;47.372;8.512;2023-09-30T06:00:11;22.70;;;6.67;;
6442;SDS011;3254;47.372;8.512;2023-09-30T06:02:53;21.23;;;6.93;;
6442;SDS011;3254;47.372;8.512;2023-09-30T06:05:19;11.77;;;6.43;;
6442;SDS011;3254;47.372;8.512;2023-09-30T06:07:45;14.37;;;5.93;;
6442;SDS011;3254;47.372;8.512;2023-09-30T06:10:11;18.63;;;6.90;;
6442;SDS011;3254;47.372;8.512;2023-09-30T06:12:38;13.87;;;6.77;;
6442;SDS011;3254;47.372;8.512;2023-09-30T06:15:03;24.10;;;7.67;;
6442;SDS011;3254;47.372;8.512;2023-09-30T06:17:30;19.00;;;7.07;;
6442;SDS011;3254;47.372;8.512;2023-09-30T06:19:58;14.73;;;6.23;;
6442;SDS011;3254;47.372;8.512;2023-09-30T06:22:32;15.83;;;6.27;;
6442;SDS011;3254;47.372;8.512;2023-09-30T06:24:58;17.73;;;7.00;;
6442;SDS011;3254;47.372;8.512;2023-09-30T06:27:23;17.17;;;7.60;;
6442;SDS011;3254;47.372;8.512;2023-09-30T06:29:49;13.77;;;6.30;;
6442;SDS011;3254;47.372;8.512;2023-09-30T06:32:14;15.63;;;6.90;;
6442;SDS011;3254;47.372;8.512;2023-09-30T06:34:40;19.90;;;7.47;;
6442;SDS011;3254;47.372;8.512;2023-09-30T06:37:06;17.47;;;6.90;;
6442;SDS011;3254;47.372;8.512;2023-09-30T06:39:31;13.83;;;6.73;;
6442;SDS011;3254;47.372;8.512;2023-09-30T06:41:57;25.70;;;7.63;;
6442;SDS011;3254;47.372;8.512;2023-09-30T06:44:22;16.53;;;7.17;;
6442;SDS011;3254;47.372;8.512;2023-09-30T06:46:50;18.57;;;7.67;;
6442;SDS011;3254;47.372;8.512;2023-09-30T06:49:16;19.00;;;7.70;;
6442;SDS011;3254;47.372;8.512;2023-09-30T06:51:42;17.60;;;7.07;;
6442;SDS011;3254;47.372;8.512;2023-09-30T06:54:08;19.63;;;8.43;;
6442;SDS011;3254;47.372;8.512;2023-09-30T06:56:33;23.57;;;8.50;;
6442;SDS011;3254;47.372;8.512;2023-09-30T06:58:59;13.17;;;6.83;;
6442;SDS011;3254;47.372;8.512;2023-09-30T07:01:26;17.87;;;8.07;;
6442;SDS011;3254;47.372;8.512;2023-09-30T07:03:51;25.17;;;9.33;;
6442;SDS011;3254;47.372;8.512;2023-09-30T07:06:23;21.50;;;8.47;;
6442;SDS011;3254;47.372;8.512;2023-09-30T07:08:49;17.00;;;8.87;;
6442;SDS011;3254;47.372;8.512;2023-09-30T07:11:15;24.83;;;9.27;;
6442;SDS011;3254;47.372;8.512;2023-09-30T07:13:41;22.50;;;8.37;;
6442;SDS011;3254;47.372;8.512;2023-09-30T07:16:06;23.87;;;8.70;;
6442;SDS011;3254;47.372;8.512;2023-09-30T07:18:32;18.80;;;8.23;;
6442;SDS011;3254;47.372;8.512;2023-09-30T07:20:57;19.10;;;8.47;;
6442;SDS011;3254;47.372;8.512;2023-09-30T07:23:23;19.63;;;9.13;;
6442;SDS011;3254;47.372;8.512;2023-09-30T07:25:48;23.83;;;9.60;;
6442;SDS011;3254;47.372;8.512;2023-09-30T07:28:14;16.97;;;7.73;;
6442;SDS011;3254;47.372;8.512;2023-09-30T07:30:40;15.33;;;8.00;;
6442;SDS011;3254;47.372;8.512;2023-09-30T07:33:06;19.70;;;8.60;;
6442;SDS011;3254;47.372;8.512;2023-09-30T07:35:32;23.20;;;9.83;;
6442;SDS011;3254;47.372;8.512;2023-09-30T07:37:58;21.10;;;8.60;;
6442;SDS011;3254;47.372;8.512;2023-09-30T07:40:25;17.97;;;8.53;;
6442;SDS011;3254;47.372;8.512;2023-09-30T07:42:52;18.23;;;7.97;;
6442;SDS011;3254;47.372;8.512;2023-09-30T07:45:18;17.83;;;7.97;;
6442;SDS011;3254;47.372;8.512;2023-09-30T07:47:45;19.73;;;9.33;;
6442;SDS011;3254;47.372;8.512;2023-09-30T07:50:14;25.60;;;8.83;;
6442;SDS011;3254;47.372;8.512;2023-09-30T07:52:39;19.20;;;8.80;;
6442;SDS011;3254;47.372;8.512;2023-09-30T07:55:06;21.80;;;8.33;;
6442;SDS011;3254;47.372;8.512;2023-09-30T07:57:33;23.93;;;9.90;;
6442;SDS011;3254;47.372;8.512;2023-09-30T07:59:58;16.80;;;9.03;;
6442;SDS011;3254;47.372;8.512;2023-09-30T08:02:24;14.57;;;7.00;;
6442;SDS011;3254;47.372;8.512;2023-09-30T08:04:52;19.60;;;8.60;;
6442;SDS011;3254;47.372;8.512;2023-09-30T08:07:18;20.90;;;9.30;;
6442;SDS011;3254;47.372;8.512;2023-09-30T08:09:44;18.60;;;9.07;;
6442;SDS011;3254;47.372;8.512;2023-09-30T08:12:09;20.13;;;9.47;;
6442;SDS011;3254;47.372;8.512;2023-09-30T08:14:35;18.93;;;8.67;;
6442;SDS011;3254;47.372;8.512;2023-09-30T08:17:00;20.37;;;8.57;;
6442;SDS011;3254;47.372;8.512;2023-09-30T08:19:27;14.97;;;7.60;;
6442;SDS011;3254;47.372;8.512;2023-09-30T08:21:53;16.03;;;7.70;;
6442;SDS011;3254;47.372;8.512;2023-09-30T08:24:18;17.73;;;8.67;;
6442;SDS011;3254;47.372;8.512;2023-09-30T08:26:44;18.17;;;8.50;;
6442;SDS011;3254;47.372;8.512;2023-09-30T08:29:09;15.50;;;8.00;;
6442;SDS011;3254;47.372;8.512;2023-09-30T08:31:35;22.73;;;10.23;;
6442;SDS011;3254;47.372;8.512;2023-09-30T08:34:01;23.57;;;9.97;;
6442;SDS011;3254;47.372;8.512;2023-09-30T08:36:29;21.07;;;8.60;;
6442;SDS011;3254;47.372;8.512;2023-09-30T08:38:55;21.13;;;9.40;;
6442;SDS011;3254;47.372;8.512;2023-09-30T08:41:38;22.83;;;9.53;;
6442;SDS011;3254;47.372;8.512;2023-09-30T08:44:04;20.70;;;9.90;;
6442;SDS011;3254;47.372;8.512;2023-09-30T08:46:34;19.60;;;9.00;;
6442;SDS011;3254;47.372;8.512;2023-09-30T08:49:03;22.87;;;9.90;;
6442;SDS011;3254;47.372;8.512;2023-09-30T08:51:31;19.47;;;9.87;;
6442;SDS011;3254;47.372;8.512;2023-09-30T08:53:57;21.50;;;9.50;;
6442;SDS011;3254;47.372;8.512;2023-09-30T08:56:26;19.07;;;8.93;;
6442;SDS011;3254;47.372;8.512;2023-09-30T08:58:57;17.60;;;9.00;;
6442;SDS011;3254;47.372;8.512;2023-09-30T09:01:24;14.83;;;8.00;;
6442;SDS011;3254;47.372;8.512;2023-09-30T09:03:50;18.33;;;9.10;;
6442;SDS011;3254;47.372;8.512;2023-09-30T09:06:18;19.47;;;9.30;;
6442;SDS011;3254;47.372;8.512;2023-09-30T09:08:47;26.40;;;9.13;;
6442;SDS011;3254;47.372;8.512;2023-09-30T09:11:13;23.03;;;9.07;;
6442;SDS011;3254;47.372;8.512;2023-09-30T09:13:52;18.07;;;9.80;;
6442;SDS011;3254;47.372;8.512;2023-09-30T09:16:21;22.03;;;10.80;;
6442;SDS011;3254;47.372;8.512;2023-09-30T09:18:47;15.67;;;9.27;;
6442;SDS011;3254;47.372;8.512;2023-09-30T09:21:23;21.87;;;10.20;;
6442;SDS011;3254;47.372;8.512;2023-09-30T09:23:51;22.27;;;10.70;;
6442;SDS011;3254;47.372;8.512;2023-09-30T09:26:29;21.10;;;10.67;;
6442;SDS011;3254;47.372;8.512;2023-09-30T09:29:03;17.50;;;9.30;;
6442;SDS011;3254;47.372;8.512;2023-09-30T09:31:31;21.70;;;10.50;;
6442;SDS011;3254;47.372;8.512;2023-09-30T09:33:59;16.90;;;9.20;;
6442;SDS011;3254;47.372;8.512;2023-09-30T09:36:38;20.27;;;10.23;;
6442;SDS011;3254;47.372;8.512;2023-09-30T09:39:05;19.63;;;9.60;;
6442;SDS011;3254;47.372;8.512;2023-09-30T09:41:31;19.67;;;9.37;;
6442;SDS011;3254;47.372;8.512;2023-09-30T09:43:56;19.83;;;10.50;;
6442;SDS011;3254;47.372;8.512;2023-09-30T09:46:24;22.53;;;9.60;;
6442;SDS011;3254;47.372;8.512;2023-09-30T09:48:52;16.53;;;9.23;;
6442;SDS011;3254;47.372;8.512;2023-09-30T09:51:19;18.57;;;9.20;;
6442;SDS011;3254;47.372;8.512;2023-09-30T09:53:46;21.50;;;9.77;;
6442;SDS011;3254;47.372;8.512;2023-09-30T09:56:14;23.80;;;10.47;;
6442;SDS011;3254;47.372;8.512;2023-09-30T09:58:40;23.43;;;10.53;;
6442;SDS011;3254;47.372;8.512;2023-09-30T10:01:07;21.63;;;9.60;;
6442;SDS011;3254;47.372;8.512;2023-09-30T10:03:40;26.87;;;11.30;;
6442;SDS011;3254;47.372;8.512;2023-09-30T10:06:06;22.83;;;10.67;;
6442;SDS011;3254;47.372;8.512;2023-09-30T10:08:39;20.30;;;10.27;;
6442;SDS011;3254;47.372;8.512;2023-09-30T10:11:16;21.07;;;10.70;;
6442;SDS011;3254;47.372;8.512;2023-09-30T10:13:52;22.67;;;10.83;;
6442;SDS011;3254;47.372;8.512;2023-09-30T10:24:47;24.10;;;11.30;;
6442;SDS011;3254;47.372;8.512;2023-09-30T10:35:16;19.33;;;10.13;;
6442;SDS011;3254;47.372;8.512;2023-09-30T10:37:42;18.57;;;11.10;;
6442;SDS011;3254;47.372;8.512;2023-09-30T10:40:08;18.67;;;11.03;;
6442;SDS011;3254;47.372;8.512;2023-09-30T10:42:50;16.00;;;10.50;;
6442;SDS011;3254;47.372;8.512;2023-09-30T10:45:42;21.67;;;11.47;;
6442;SDS011;3254;47.372;8.512;2023-09-30T10:50:50;22.43;;;11.47;;
6442;SDS011;3254;47.372;8.512;2023-09-30T10:53:17;23.17;;;11.00;;
6442;SDS011;3254;47.372;8.512;2023-09-30T10:55:44;19.33;;;10.43;;
6442;SDS011;3254;47.372;8.512;2023-09-30T10:58:11;22.37;;;11.30;;
6442;SDS011;3254;47.372;8.512;2023-09-30T11:00:39;21.30;;;10.60;;
6442;SDS011;3254;47.372;8.512;2023-09-30T11:03:19;19.83;;;10.60;;
6442;SDS011;3254;47.372;8.512;2023-09-30T11:05:50;22.17;;;9.67;;
6442;SDS011;3254;47.372;8.512;2023-09-30T11:08:19;18.10;;;10.20;;
6442;SDS011;3254;47.372;8.512;2023-09-30T11:10:48;18.87;;;9.80;;
6442;SDS011;3254;47.372;8.512;2023-09-30T11:13:18;23.03;;;10.80;;
6442;SDS011;3254;47.372;8.512;2023-09-30T11:15:45;22.27;;;10.50;;
6442;SDS011;3254;47.372;8.512;2023-09-30T11:18:17;16.57;;;9.57;;
6442;SDS011;3254;47.372;8.512;2023-09-30T11:20:43;19.83;;;10.37;;
6442;SDS011;3254;47.372;8.512;2023-09-30T11:23:13;20.77;;;11.27;;
6442;SDS011;3254;47.372;8.512;2023-09-30T11:25:40;20.77;;;10.83;;
6442;SDS011;3254;47.372;8.512;2023-09-30T11:28:13;19.07;;;10.27;;
6442;SDS011;3254;47.372;8.512;2023-09-30T11:30:59;18.57;;;11.03;;
6442;SDS011;3254;47.372;8.512;2023-09-30T11:33:31;16.60;;;9.77;;
6442;SDS011;3254;47.372;8.512;2023-09-30T11:36:02;20.00;;;10.97;;
6442;SDS011;3254;47.372;8.512;2023-09-30T11:38:30;17.53;;;10.73;;
6442;SDS011;3254;47.372;8.512;2023-09-30T11:40:58;17.10;;;9.87;;
6442;SDS011;3254;47.372;8.512;2023-09-30T11:43:25;28.20;;;10.50;;
6442;SDS011;3254;47.372;8.512;2023-09-30T11:45:50;19.90;;;10.17;;
6442;SDS011;3254;47.372;8.512;2023-09-30T11:48:19;19.17;;;10.50;;
6442;SDS011;3254;47.372;8.512;2023-09-30T11:50:48;21.70;;;10.60;;
6442;SDS011;3254;47.372;8.512;2023-09-30T11:53:16;18.67;;;9.90;;
6442;SDS011;3254;47.372;8.512;2023-09-30T11:55:42;19.70;;;10.10;;
6442;SDS011;3254;47.372;8.512;2023-09-30T11:58:08;19.97;;;10.63;;
6442;SDS011;3254;47.372;8.512;2023-09-30T12:00:35;18.43;;;10.90;;
6442;SDS011;3254;47.372;8.512;2023-09-30T12:03:00;18.33;;;9.80;;
6442;SDS011;3254;47.372;8.512;2023-09-30T12:05:26;20.83;;;10.40;;
6442;SDS011;3254;47.372;8.512;2023-09-30T12:07:51;20.90;;;11.17;;
6442;SDS011;3254;47.372;8.512;2023-09-30T12:10:17;20.17;;;10.67;;
6442;SDS011;3254;47.372;8.512;2023-09-30T12:12:42;17.80;;;10.73;;
6442;SDS011;3254;47.372;8.512;2023-09-30T12:15:09;17.00;;;9.50;;
6442;SDS011;3254;47.372;8.512;2023-09-30T12:17:35;16.33;;;9.60;;
6442;SDS011;3254;47.372;8.512;2023-09-30T12:20:02;18.60;;;9.77;;
6442;SDS011;3254;47.372;8.512;2023-09-30T12:22:28;17.40;;;9.37;;
6442;SDS011;3254;47.372;8.512;2023-09-30T12:24:54;19.50;;;9.90;;
6442;SDS011;3254;47.372;8.512;2023-09-30T12:27:19;14.90;;;10.07;;
6442;SDS011;3254;47.372;8.512;2023-09-30T12:29:45;20.20;;;10.70;;
6442;SDS011;3254;47.372;8.512;2023-09-30T12:32:13;18.40;;;10.10;;
6442;SDS011;3254;47.372;8.512;2023-09-30T12:34:39;15.97;;;9.60;;
6442;SDS011;3254;47.372;8.512;2023-09-30T12:37:05;16.97;;;10.07;;
6442;SDS011;3254;47.372;8.512;2023-09-30T12:39:31;21.00;;;11.00;;
6442;SDS011;3254;47.372;8.512;2023-09-30T12:41:58;19.73;;;10.07;;
6442;SDS011;3254;47.372;8.512;2023-09-30T12:44:24;21.37;;;11.67;;
6442;SDS011;3254;47.372;8.512;2023-09-30T12:46:49;19.17;;;10.40;;
6442;SDS011;3254;47.372;8.512;2023-09-30T12:49:15;26.43;;;10.90;;
6442;SDS011;3254;47.372;8.512;2023-09-30T12:51:40;18.60;;;9.40;;
6442;SDS011;3254;47.372;8.512;2023-09-30T12:54:06;20.00;;;10.80;;
6442;SDS011;3254;47.372;8.512;2023-09-30T12:56:32;15.57;;;9.60;;
6442;SDS011;3254;47.372;8.512;2023-09-30T12:58:58;20.70;;;9.93;;
6442;SDS011;3254;47.372;8.512;2023-09-30T13:01:24;21.27;;;10.70;;
6442;SDS011;3254;47.372;8.512;2023-09-30T13:03:50;17.67;;;10.60;;
6442;SDS011;3254;47.372;8.512;2023-09-30T13:06:16;19.67;;;11.17;;
6442;SDS011;3254;47.372;8.512;2023-09-30T13:08:42;17.13;;;9.50;;
6442;SDS011;3254;47.372;8.512;2023-09-30T13:11:08;17.23;;;9.73;;
6442;SDS011;3254;47.372;8.512;2023-09-30T13:13:34;14.53;;;9.20;;
6442;SDS011;3254;47.372;8.512;2023-09-30T13:16:00;16.87;;;8.80;;
6442;SDS011;3254;47.372;8.512;2023-09-30T13:18:26;21.90;;;10.00;;
6442;SDS011;3254;47.372;8.512;2023-09-30T13:20:52;17.33;;;9.00;;
6442;SDS011;3254;47.372;8.512;2023-09-30T13:23:18;19.00;;;9.60;;
6442;SDS011;3254;47.372;8.512;2023-09-30T13:25:44;16.50;;;9.33;;
6442;SDS011;3254;47.372;8.512;2023-09-30T13:28:10;16.40;;;9.20;;
6442;SDS011;3254;47.372;8.512;2023-09-30T13:30:35;16.40;;;9.47;;
6442;SDS011;3254;47.372;8.512;2023-09-30T13:33:03;22.23;;;11.03;;
6442;SDS011;3254;47.372;8.512;2023-09-30T13:35:28;16.80;;;10.03;;
6442;SDS011;3254;47.372;8.512;2023-09-30T13:37:54;22.27;;;11.23;;
6442;SDS011;3254;47.372;8.512;2023-09-30T13:40:19;19.10;;;9.83;;
6442;SDS011;3254;47.372;8.512;2023-09-30T13:42:45;16.17;;;9.47;;
6442;SDS011;3254;47.372;8.512;2023-09-30T13:45:11;19.33;;;9.50;;
6442;SDS011;3254;47.372;8.512;2023-09-30T13:47:37;19.33;;;9.50;;
6442;SDS011;3254;47.372;8.512;2023-09-30T13:50:03;23.37;;;9.63;;
6442;SDS011;3254;47.372;8.512;2023-09-30T13:52:31;23.67;;;10.67;;
6442;SDS011;3254;47.372;8.512;2023-09-30T13:54:58;15.07;;;8.80;;
6442;SDS011;3254;47.372;8.512;2023-09-30T13:57:23;15.30;;;8.67;;
6442;SDS011;3254;47.372;8.512;2023-09-30T13:59:49;18.00;;;10.10;;
6442;SDS011;3254;47.372;8.512;2023-09-30T14:02:15;15.40;;;9.33;;
6442;SDS011;3254;47.372;8.512;2023-09-30T14:04:40;16.40;;;8.93;;
6442;SDS011;3254;47.372;8.512;2023-09-30T14:07:06;15.30;;;9.23;;
6442;SDS011;3254;47.372;8.512;2023-09-30T14:09:32;15.10;;;8.80;;
6442;SDS011;3254;47.372;8.512;2023-09-30T14:11:58;18.77;;;9.50;;
6442;SDS011;3254;47.372;8.512;2023-09-30T14:14:24;16.13;;;8.07;;
6442;SDS011;3254;47.372;8.512;2023-09-30T14:16:50;16.63;;;8.80;;
6442;SDS011;3254;47.372;8.512;2023-09-30T14:19:16;15.93;;;8.50;;
6442;SDS011;3254;47.372;8.512;2023-09-30T14:21:41;18.07;;;9.10;;
6442;SDS011;3254;47.372;8.512;2023-09-30T14:24:07;16.17;;;9.63;;
6442;SDS011;3254;47.372;8.512;2023-09-30T14:26:33;17.73;;;8.80;;
6442;SDS011;3254;47.372;8.512;2023-09-30T14:28:59;16.57;;;8.60;;
6442;SDS011;3254;47.372;8.512;2023-09-30T14:31:24;14.50;;;8.57;;
6442;SDS011;3254;47.372;8.512;2023-09-30T14:33:50;16.27;;;8.93;;
6442;SDS011;3254;47.372;8.512;2023-09-30T14:36:16;17.43;;;8.80;;
6442;SDS011;3254;47.372;8.512;2023-09-30T14:38:43;16.20;;;7.90;;
6442;SDS011;3254;47.372;8.512;2023-09-30T14:41:10;18.80;;;9.10;;
6442;SDS011;3254;47.372;8.512;2023-09-30T14:43:37;15.43;;;8.80;;
6442;SDS011;3254;47.372;8.512;2023-09-30T14:46:03;14.83;;;8.40;;
6442;SDS011;3254;47.372;8.512;2023-09-30T14:48:28;15.23;;;8.60;;
6442;SDS011;3254;47.372;8.512;2023-09-30T14:50:54;15.10;;;9.00;;
6442;SDS011;3254;47.372;8.512;2023-09-30T14:53:20;15.37;;;8.40;;
6442;SDS011;3254;47.372;8.512;2023-09-30T14:55:46;21.30;;;8.73;;
6442;SDS011;3254;47.372;8.512;2023-09-30T14:58:12;17.27;;;8.57;;
6442;SDS011;3254;47.372;8.512;2023-09-30T15:00:37;14.83;;;7.60;;
6442;SDS011;3254;47.372;8.512;2023-09-30T15:03:03;14.87;;;8.53;;
6442;SDS011;3254;47.372;8.512;2023-09-30T15:05:30;18.03;;;8.67;;
6442;SDS011;3254;47.372;8.512;2023-09-30T15:07:56;17.70;;;9.00;;
6442;SDS011;3254;47.372;8.512;2023-09-30T15:10:22;14.07;;;8.10;;
6442;SDS011;3254;47.372;8.512;2023-09-30T15:12:47;13.33;;;7.90;;
6442;SDS011;3254;47.372;8.512;2023-09-30T15:15:13;16.40;;;8.17;;